EZY34NG EGNT-LEMG
Flight info
| Callsign | EZY34NG |
|---|---|
| Flight time | 3h 7m |
| Altitude | 35000 |
| Route | GIRLI P18 GASKO P16 RIBEL UP16 NOKIN N862 KARNO DCT ALHUP/N0449F360 DCT ABWIV DCT PACSE DCT SIDHO DCT TONQU DCT SALCO/N0451F350 DCT DELOG/N0451F370 DCT CRISA DCT VULPE |
| Aircraft | A320/M-SDE3FGHIRWY/LB1 |
Departure
| Time | 2026-04-30 07:07 |
|---|---|
| Airport | Newcastle International Airport (EGNT) |
Arrival
| Time | 2026-04-30 10:14 |
|---|---|
| Airport | Málaga-Costa del Sol Airport (LEMG) |
| Time | Latitude | Longitude | Altitude | Speed | Heading |
|---|---|---|---|---|---|
| 2026-04-30 06:38 | 55.03721 | -1.70602 | 258 ft | 0 kts | 242° |
| 2026-04-30 07:00 | 55.03726 | -1.70587 | 258 ft | 4 kts | 237° |
| 2026-04-30 07:01 | 55.03743 | -1.70551 | 257 ft | 4 kts | 218° |
| 2026-04-30 07:01 | 55.03765 | -1.70525 | 256 ft | 4 kts | 212° |
| 2026-04-30 07:01 | 55.03784 | -1.70495 | 255 ft | 4 kts | 233° |
| 2026-04-30 07:01 | 55.03798 | -1.70456 | 255 ft | 2 kts | 245° |
| 2026-04-30 07:02 | 55.03798 | -1.70452 | 254 ft | 0 kts | 245° |
| 2026-04-30 07:04 | 55.03761 | -1.70461 | 256 ft | 13 kts | 176° |
| 2026-04-30 07:04 | 55.03683 | -1.70440 | 259 ft | 9 kts | 182° |
| 2026-04-30 07:05 | 55.03531 | -1.70646 | 261 ft | 19 kts | 182° |
| 2026-04-30 07:05 | 55.03397 | -1.70647 | 261 ft | 19 kts | 166° |
| 2026-04-30 07:05 | 55.03367 | -1.70563 | 261 ft | 5 kts | 50° |
| 2026-04-30 07:06 | 55.03391 | -1.70488 | 261 ft | 8 kts | 63° |
| 2026-04-30 07:06 | 55.03430 | -1.70350 | 260 ft | 21 kts | 65° |
| 2026-04-30 07:06 | 55.03599 | -1.69704 | 258 ft | 94 kts | 65° |
| 2026-04-30 07:06 | 55.03951 | -1.68340 | 248 ft | 150 kts | 67° |
| 2026-04-30 07:07 | 55.04384 | -1.66516 | 618 ft | 170 kts | 65° |
| 2026-04-30 07:07 | 55.04896 | -1.64623 | 1256 ft | 179 kts | 68° |
| 2026-04-30 07:07 | 55.05449 | -1.62559 | 1614 ft | 198 kts | 71° |
| 2026-04-30 07:07 | 55.06048 | -1.60313 | 2110 ft | 208 kts | 71° |
| 2026-04-30 07:08 | 55.06647 | -1.57979 | 2753 ft | 211 kts | 78° |
| 2026-04-30 07:08 | 55.06639 | -1.55530 | 3487 ft | 201 kts | 116° |
| 2026-04-30 07:08 | 55.05767 | -1.53664 | 4083 ft | 210 kts | 150° |
| 2026-04-30 07:08 | 55.04268 | -1.53081 | 4494 ft | 236 kts | 175° |
| 2026-04-30 07:09 | 55.02589 | -1.53063 | 5241 ft | 245 kts | 176° |
| 2026-04-30 07:09 | 55.00869 | -1.53103 | 6088 ft | 249 kts | 176° |
| 2026-04-30 07:09 | 54.99129 | -1.53156 | 6972 ft | 252 kts | 178° |
| 2026-04-30 07:09 | 54.97373 | -1.53678 | 7786 ft | 262 kts | 193° |
| 2026-04-30 07:10 | 54.95697 | -1.55076 | 8618 ft | 272 kts | 205° |
| 2026-04-30 07:10 | 54.94095 | -1.56765 | 9447 ft | 274 kts | 205° |
| 2026-04-30 07:10 | 54.92453 | -1.58473 | 10289 ft | 278 kts | 205° |
| 2026-04-30 07:10 | 54.90718 | -1.60252 | 10559 ft | 301 kts | 205° |
| 2026-04-30 07:11 | 54.88840 | -1.62164 | 10770 ft | 325 kts | 205° |
| 2026-04-30 07:11 | 54.86839 | -1.64207 | 11154 ft | 340 kts | 206° |
| 2026-04-30 07:11 | 54.84788 | -1.66317 | 11802 ft | 345 kts | 207° |
| 2026-04-30 07:11 | 54.82713 | -1.68454 | 12508 ft | 349 kts | 207° |
| 2026-04-30 07:12 | 54.80610 | -1.70614 | 13214 ft | 353 kts | 207° |
| 2026-04-30 07:12 | 54.78487 | -1.72788 | 13918 ft | 357 kts | 207° |
| 2026-04-30 07:12 | 54.76338 | -1.74991 | 14562 ft | 361 kts | 207° |
| 2026-04-30 07:12 | 54.74165 | -1.77210 | 15185 ft | 364 kts | 207° |
| 2026-04-30 07:13 | 54.71941 | -1.79342 | 15775 ft | 366 kts | 201° |
| 2026-04-30 07:13 | 54.69544 | -1.80791 | 16370 ft | 365 kts | 190° |
| 2026-04-30 07:13 | 54.67043 | -1.81608 | 16966 ft | 367 kts | 187° |
| 2026-04-30 07:13 | 54.64517 | -1.82393 | 17560 ft | 371 kts | 187° |
| 2026-04-30 07:14 | 54.61969 | -1.83197 | 18111 ft | 374 kts | 187° |
| 2026-04-30 07:14 | 54.59401 | -1.84014 | 18649 ft | 377 kts | 187° |
| 2026-04-30 07:14 | 54.56813 | -1.84836 | 19110 ft | 380 kts | 187° |
| 2026-04-30 07:14 | 54.54202 | -1.85667 | 19585 ft | 383 kts | 187° |
| 2026-04-30 07:15 | 54.51574 | -1.86502 | 20042 ft | 385 kts | 187° |
| 2026-04-30 07:15 | 54.48928 | -1.87339 | 20498 ft | 388 kts | 188° |
| 2026-04-30 07:15 | 54.46268 | -1.88175 | 20936 ft | 390 kts | 187° |
| 2026-04-30 07:15 | 54.43586 | -1.89016 | 21370 ft | 393 kts | 188° |
| 2026-04-30 07:16 | 54.40879 | -1.89866 | 21804 ft | 396 kts | 188° |
| 2026-04-30 07:16 | 54.38163 | -1.90715 | 22223 ft | 399 kts | 188° |
| 2026-04-30 07:16 | 54.35423 | -1.91569 | 22646 ft | 401 kts | 188° |
| 2026-04-30 07:16 | 54.32700 | -1.92417 | 23044 ft | 404 kts | 188° |
| 2026-04-30 07:17 | 54.29923 | -1.93281 | 23470 ft | 407 kts | 188° |
| 2026-04-30 07:17 | 54.27130 | -1.94149 | 23857 ft | 409 kts | 188° |
| 2026-04-30 07:17 | 54.21752 | -1.97573 | 24530 ft | 421 kts | 208° |
| 2026-04-30 07:18 | 54.19380 | -2.00557 | 24861 ft | 428 kts | 219° |
| 2026-04-30 07:18 | 54.17210 | -2.04060 | 25193 ft | 430 kts | 220° |
| 2026-04-30 07:18 | 54.15029 | -2.07580 | 25529 ft | 432 kts | 219° |
| 2026-04-30 07:18 | 54.12834 | -2.11100 | 25861 ft | 434 kts | 219° |
| 2026-04-30 07:19 | 54.10630 | -2.14619 | 26226 ft | 434 kts | 219° |
| 2026-04-30 07:19 | 54.08417 | -2.18141 | 26580 ft | 435 kts | 219° |
| 2026-04-30 07:19 | 54.06201 | -2.21667 | 26906 ft | 437 kts | 219° |
| 2026-04-30 07:19 | 54.03970 | -2.25190 | 27204 ft | 438 kts | 217° |
| 2026-04-30 07:20 | 54.01546 | -2.28300 | 27499 ft | 435 kts | 208° |
| 2026-04-30 07:20 | 53.98886 | -2.30706 | 27779 ft | 432 kts | 199° |
| 2026-04-30 07:20 | 53.96086 | -2.32537 | 28044 ft | 432 kts | 197° |
| 2026-04-30 07:20 | 53.93264 | -2.34340 | 28298 ft | 434 kts | 197° |
| 2026-04-30 07:21 | 53.90426 | -2.36163 | 28581 ft | 436 kts | 197° |
| 2026-04-30 07:21 | 53.87623 | -2.37971 | 28854 ft | 438 kts | 197° |
| 2026-04-30 07:21 | 53.84737 | -2.39835 | 29119 ft | 439 kts | 197° |
| 2026-04-30 07:21 | 53.81876 | -2.41677 | 29425 ft | 439 kts | 197° |
| 2026-04-30 07:22 | 53.76215 | -2.45300 | 30238 ft | 436 kts | 197° |
| 2026-04-30 07:22 | 53.73379 | -2.47105 | 30586 ft | 435 kts | 197° |
| 2026-04-30 07:22 | 53.70544 | -2.48908 | 30901 ft | 435 kts | 197° |
| 2026-04-30 07:23 | 53.67714 | -2.50707 | 31177 ft | 435 kts | 197° |
| 2026-04-30 07:23 | 53.64881 | -2.52501 | 31469 ft | 434 kts | 197° |
| 2026-04-30 07:23 | 53.62053 | -2.54290 | 31782 ft | 434 kts | 197° |
| 2026-04-30 07:23 | 53.59227 | -2.56079 | 32087 ft | 433 kts | 197° |
| 2026-04-30 07:24 | 53.56405 | -2.57867 | 32396 ft | 432 kts | 197° |
| 2026-04-30 07:24 | 53.53593 | -2.59643 | 32763 ft | 431 kts | 196° |
| 2026-04-30 07:24 | 53.50791 | -2.61411 | 33097 ft | 429 kts | 196° |
| 2026-04-30 07:24 | 53.47995 | -2.63174 | 33413 ft | 428 kts | 196° |
| 2026-04-30 07:25 | 53.45204 | -2.64932 | 33741 ft | 428 kts | 196° |
| 2026-04-30 07:25 | 53.42422 | -2.66678 | 34035 ft | 427 kts | 196° |
| 2026-04-30 07:25 | 53.39672 | -2.68399 | 34318 ft | 426 kts | 196° |
| 2026-04-30 07:25 | 53.36895 | -2.70139 | 34574 ft | 426 kts | 196° |
| 2026-04-30 07:26 | 53.34123 | -2.71872 | 34830 ft | 425 kts | 196° |
| 2026-04-30 07:26 | 53.31345 | -2.73603 | 35077 ft | 425 kts | 196° |
| 2026-04-30 07:26 | 53.28573 | -2.75326 | 35252 ft | 425 kts | 196° |
| 2026-04-30 07:26 | 53.25797 | -2.77049 | 35305 ft | 426 kts | 196° |
| 2026-04-30 07:27 | 53.20230 | -2.80503 | 35288 ft | 427 kts | 197° |
| 2026-04-30 07:27 | 53.14660 | -2.83967 | 35306 ft | 427 kts | 197° |
| 2026-04-30 07:28 | 53.09073 | -2.87336 | 35298 ft | 425 kts | 192° |
| 2026-04-30 07:28 | 53.03281 | -2.88663 | 35304 ft | 420 kts | 180° |
| 2026-04-30 07:29 | 52.97445 | -2.89138 | 35294 ft | 420 kts | 180° |
| 2026-04-30 07:29 | 52.91603 | -2.89640 | 35290 ft | 421 kts | 180° |
| 2026-04-30 07:30 | 52.82849 | -2.91393 | 35286 ft | 424 kts | 185° |
| 2026-04-30 07:31 | 52.77006 | -2.92769 | 35279 ft | 424 kts | 185° |
| 2026-04-30 07:31 | 52.71160 | -2.94101 | 35291 ft | 423 kts | 182° |
| 2026-04-30 07:32 | 52.65284 | -2.94616 | 35282 ft | 423 kts | 180° |
| 2026-04-30 07:32 | 52.59403 | -2.95095 | 35269 ft | 423 kts | 180° |
| 2026-04-30 07:33 | 52.53585 | -2.95582 | 35274 ft | 423 kts | 180° |
| 2026-04-30 07:33 | 52.47693 | -2.96071 | 35268 ft | 423 kts | 180° |
| 2026-04-30 07:34 | 52.41798 | -2.96558 | 35258 ft | 425 kts | 180° |
| 2026-04-30 07:34 | 52.36891 | -2.96963 | 35259 ft | 425 kts | 180° |
| 2026-04-30 07:35 | 52.30976 | -2.97439 | 35269 ft | 426 kts | 180° |
| 2026-04-30 07:35 | 52.25109 | -2.97882 | 35229 ft | 417 kts | 180° |
| 2026-04-30 07:36 | 52.19387 | -2.98302 | 35258 ft | 406 kts | 180° |
| 2026-04-30 07:36 | 52.13805 | -2.98736 | 35254 ft | 397 kts | 180° |
| 2026-04-30 07:37 | 52.08297 | -2.99202 | 35254 ft | 401 kts | 180° |
| 2026-04-30 07:37 | 52.02641 | -2.99727 | 35284 ft | 414 kts | 180° |
| 2026-04-30 07:38 | 51.96802 | -3.00217 | 35311 ft | 426 kts | 180° |
| 2026-04-30 07:38 | 51.90829 | -3.00688 | 35337 ft | 432 kts | 180° |
| 2026-04-30 07:39 | 51.84858 | -3.01346 | 35365 ft | 434 kts | 184° |
| 2026-04-30 07:39 | 51.78862 | -3.02620 | 35383 ft | 435 kts | 186° |
| 2026-04-30 07:40 | 51.72872 | -3.04051 | 35381 ft | 435 kts | 186° |
| 2026-04-30 07:40 | 51.66869 | -3.05382 | 35377 ft | 435 kts | 185° |
| 2026-04-30 07:41 | 51.60866 | -3.06616 | 35339 ft | 435 kts | 184° |
| 2026-04-30 07:41 | 51.54862 | -3.07826 | 35297 ft | 434 kts | 185° |
| 2026-04-30 07:41 | 51.51863 | -3.08439 | 35171 ft | 435 kts | 185° |
| 2026-04-30 07:42 | 51.48900 | -3.09050 | 35162 ft | 435 kts | 185° |
| 2026-04-30 07:42 | 51.42894 | -3.10296 | 35157 ft | 435 kts | 185° |
| 2026-04-30 07:43 | 51.36892 | -3.11524 | 35156 ft | 435 kts | 185° |
| 2026-04-30 07:43 | 51.30878 | -3.12746 | 35174 ft | 436 kts | 185° |
| 2026-04-30 07:44 | 51.24860 | -3.13972 | 35175 ft | 436 kts | 185° |
| 2026-04-30 07:44 | 51.18850 | -3.15202 | 35178 ft | 436 kts | 185° |
| 2026-04-30 07:45 | 51.12837 | -3.16431 | 35180 ft | 435 kts | 185° |
| 2026-04-30 07:45 | 51.06864 | -3.17639 | 35176 ft | 435 kts | 185° |
| 2026-04-30 07:46 | 51.00849 | -3.18851 | 35162 ft | 435 kts | 185° |
| 2026-04-30 07:46 | 50.94838 | -3.20062 | 35156 ft | 435 kts | 185° |
| 2026-04-30 07:47 | 50.88831 | -3.21268 | 35145 ft | 435 kts | 185° |
| 2026-04-30 07:47 | 50.82827 | -3.22475 | 35140 ft | 435 kts | 185° |
| 2026-04-30 07:48 | 50.76825 | -3.23679 | 35144 ft | 434 kts | 185° |
| 2026-04-30 07:48 | 50.70829 | -3.24871 | 35143 ft | 434 kts | 185° |
| 2026-04-30 07:49 | 50.64879 | -3.26057 | 35145 ft | 434 kts | 185° |
| 2026-04-30 07:49 | 50.58890 | -3.27258 | 35174 ft | 432 kts | 185° |
| 2026-04-30 07:50 | 50.52932 | -3.28444 | 35167 ft | 430 kts | 185° |
| 2026-04-30 07:50 | 50.47001 | -3.29615 | 35161 ft | 429 kts | 185° |
| 2026-04-30 07:51 | 50.41078 | -3.30776 | 35151 ft | 428 kts | 185° |
| 2026-04-30 07:51 | 50.35238 | -3.32396 | 35148 ft | 430 kts | 189° |
| 2026-04-30 07:52 | 50.29390 | -3.34379 | 35145 ft | 429 kts | 189° |
| 2026-04-30 07:52 | 50.23556 | -3.36338 | 35132 ft | 429 kts | 189° |
| 2026-04-30 07:53 | 50.17716 | -3.38294 | 35127 ft | 429 kts | 189° |
| 2026-04-30 07:53 | 50.11885 | -3.40258 | 35133 ft | 429 kts | 189° |
| 2026-04-30 07:54 | 50.06056 | -3.42224 | 35126 ft | 428 kts | 189° |
| 2026-04-30 07:54 | 50.00235 | -3.44169 | 35114 ft | 427 kts | 189° |
| 2026-04-30 07:55 | 49.94456 | -3.46091 | 35107 ft | 427 kts | 189° |
| 2026-04-30 07:55 | 49.88645 | -3.48022 | 35105 ft | 426 kts | 189° |
| 2026-04-30 07:56 | 49.82845 | -3.49949 | 35101 ft | 425 kts | 189° |
| 2026-04-30 07:56 | 49.77051 | -3.51859 | 35096 ft | 425 kts | 189° |
| 2026-04-30 07:57 | 49.71236 | -3.53212 | 35090 ft | 421 kts | 181° |
| 2026-04-30 07:57 | 49.65378 | -3.53752 | 35072 ft | 422 kts | 181° |
| 2026-04-30 07:58 | 49.59547 | -3.54291 | 35061 ft | 423 kts | 181° |
| 2026-04-30 07:58 | 49.53661 | -3.54833 | 35059 ft | 424 kts | 181° |
| 2026-04-30 07:59 | 49.47772 | -3.55373 | 35061 ft | 424 kts | 181° |
| 2026-04-30 07:59 | 49.41872 | -3.55920 | 35060 ft | 425 kts | 181° |
| 2026-04-30 08:00 | 49.32999 | -3.56753 | 35068 ft | 425 kts | 181° |
| 2026-04-30 08:00 | 49.27092 | -3.57307 | 35068 ft | 425 kts | 181° |
| 2026-04-30 08:01 | 49.21226 | -3.57843 | 35066 ft | 425 kts | 181° |
| 2026-04-30 08:01 | 49.15312 | -3.58380 | 35059 ft | 425 kts | 181° |
| 2026-04-30 08:02 | 49.06443 | -3.59195 | 35053 ft | 426 kts | 181° |
| 2026-04-30 08:03 | 48.94609 | -3.60263 | 35033 ft | 426 kts | 181° |
| 2026-04-30 08:04 | 48.88694 | -3.60796 | 35026 ft | 426 kts | 181° |
| 2026-04-30 08:04 | 48.82780 | -3.61333 | 35019 ft | 426 kts | 181° |
| 2026-04-30 08:05 | 48.76872 | -3.61880 | 35012 ft | 425 kts | 181° |
| 2026-04-30 08:05 | 48.70998 | -3.62416 | 35012 ft | 425 kts | 181° |
| 2026-04-30 08:06 | 48.65084 | -3.62942 | 35016 ft | 425 kts | 181° |
| 2026-04-30 08:06 | 48.59177 | -3.63467 | 35019 ft | 425 kts | 181° |
| 2026-04-30 08:07 | 48.53269 | -3.63995 | 35013 ft | 425 kts | 181° |
| 2026-04-30 08:07 | 48.47366 | -3.64523 | 35010 ft | 425 kts | 181° |
| 2026-04-30 08:08 | 48.41464 | -3.65053 | 35014 ft | 425 kts | 181° |
| 2026-04-30 08:08 | 48.35567 | -3.65577 | 35020 ft | 424 kts | 181° |
| 2026-04-30 08:09 | 48.29725 | -3.66093 | 35020 ft | 424 kts | 181° |
| 2026-04-30 08:09 | 48.23835 | -3.66613 | 35015 ft | 423 kts | 181° |
| 2026-04-30 08:10 | 48.17952 | -3.67128 | 35017 ft | 423 kts | 181° |
| 2026-04-30 08:10 | 48.12080 | -3.67649 | 35008 ft | 419 kts | 181° |
| 2026-04-30 08:10 | 48.09216 | -3.67908 | 35001 ft | 404 kts | 181° |
| 2026-04-30 08:11 | 48.06468 | -3.68156 | 35001 ft | 388 kts | 181° |
| 2026-04-30 08:11 | 48.03822 | -3.68391 | 35001 ft | 373 kts | 181° |
| 2026-04-30 08:11 | 48.01323 | -3.68612 | 35002 ft | 358 kts | 181° |
| 2026-04-30 08:11 | 47.98887 | -3.68826 | 35003 ft | 343 kts | 181° |
| 2026-04-30 08:12 | 47.96551 | -3.69028 | 35002 ft | 329 kts | 181° |
| 2026-04-30 08:12 | 47.94313 | -3.69219 | 35003 ft | 314 kts | 180° |
| 2026-04-30 08:12 | 47.92181 | -3.69402 | 34999 ft | 299 kts | 180° |
| 2026-04-30 08:12 | 47.90148 | -3.69579 | 34852 ft | 289 kts | 180° |
| 2026-04-30 08:13 | 47.88128 | -3.69752 | 34336 ft | 293 kts | 180° |
| 2026-04-30 08:13 | 47.86072 | -3.69920 | 33737 ft | 298 kts | 179° |
| 2026-04-30 08:13 | 47.84007 | -3.70084 | 33415 ft | 292 kts | 179° |
| 2026-04-30 08:13 | 47.82013 | -3.70244 | 33248 ft | 283 kts | 179° |
| 2026-04-30 08:14 | 47.80087 | -3.70398 | 32866 ft | 281 kts | 179° |
| 2026-04-30 08:14 | 47.78123 | -3.70550 | 32294 ft | 285 kts | 179° |
| 2026-04-30 08:14 | 47.76139 | -3.70697 | 31845 ft | 285 kts | 179° |
| 2026-04-30 08:14 | 47.74183 | -3.70840 | 31602 ft | 278 kts | 179° |
| 2026-04-30 08:15 | 47.72273 | -3.70979 | 31308 ft | 273 kts | 179° |
| 2026-04-30 08:15 | 47.70368 | -3.71115 | 30840 ft | 275 kts | 179° |
| 2026-04-30 08:15 | 47.68447 | -3.71245 | 30398 ft | 277 kts | 179° |
| 2026-04-30 08:15 | 47.66538 | -3.71372 | 30104 ft | 272 kts | 179° |
| 2026-04-30 08:16 | 47.64666 | -3.71495 | 29811 ft | 267 kts | 179° |
| 2026-04-30 08:16 | 47.62813 | -3.71614 | 29389 ft | 268 kts | 179° |
| 2026-04-30 08:16 | 47.60942 | -3.71729 | 28972 ft | 269 kts | 179° |
| 2026-04-30 08:16 | 47.59086 | -3.71839 | 28673 ft | 264 kts | 179° |
| 2026-04-30 08:17 | 47.57263 | -3.71946 | 28355 ft | 260 kts | 179° |
| 2026-04-30 08:17 | 47.55455 | -3.72049 | 27928 ft | 261 kts | 179° |
| 2026-04-30 08:17 | 47.53634 | -3.72148 | 27490 ft | 262 kts | 179° |
| 2026-04-30 08:17 | 47.51824 | -3.72241 | 27158 ft | 259 kts | 179° |
| 2026-04-30 08:18 | 47.50032 | -3.72331 | 26832 ft | 256 kts | 179° |
| 2026-04-30 08:18 | 47.48278 | -3.72416 | 26470 ft | 255 kts | 179° |
| 2026-04-30 08:18 | 47.46500 | -3.72498 | 26091 ft | 255 kts | 179° |
| 2026-04-30 08:18 | 47.44729 | -3.72575 | 25757 ft | 253 kts | 179° |
| 2026-04-30 08:19 | 47.42972 | -3.72649 | 25451 ft | 251 kts | 179° |
| 2026-04-30 08:19 | 47.41227 | -3.72718 | 25117 ft | 250 kts | 179° |
| 2026-04-30 08:19 | 47.39490 | -3.72783 | 24765 ft | 250 kts | 179° |
| 2026-04-30 08:19 | 47.37756 | -3.72844 | 24440 ft | 248 kts | 179° |
| 2026-04-30 08:20 | 47.36034 | -3.72900 | 24139 ft | 246 kts | 179° |
| 2026-04-30 08:20 | 47.34327 | -3.72953 | 23830 ft | 245 kts | 179° |
| 2026-04-30 08:20 | 47.32620 | -3.73001 | 23483 ft | 245 kts | 179° |
| 2026-04-30 08:20 | 47.30916 | -3.73045 | 23131 ft | 244 kts | 179° |
| 2026-04-30 08:21 | 47.29231 | -3.73084 | 22817 ft | 241 kts | 179° |
| 2026-04-30 08:21 | 47.27585 | -3.73119 | 22494 ft | 239 kts | 179° |
| 2026-04-30 08:21 | 47.25924 | -3.73151 | 22131 ft | 239 kts | 179° |
| 2026-04-30 08:21 | 47.24243 | -3.73179 | 21789 ft | 238 kts | 179° |
| 2026-04-30 08:22 | 47.22620 | -3.73202 | 21495 ft | 236 kts | 179° |
| 2026-04-30 08:22 | 47.20986 | -3.73221 | 21193 ft | 234 kts | 179° |
| 2026-04-30 08:22 | 47.19361 | -3.73236 | 20876 ft | 234 kts | 179° |
| 2026-04-30 08:22 | 47.17736 | -3.73247 | 20584 ft | 232 kts | 178° |
| 2026-04-30 08:23 | 47.16124 | -3.73254 | 20311 ft | 230 kts | 178° |
| 2026-04-30 08:23 | 47.14527 | -3.73258 | 20004 ft | 230 kts | 178° |
| 2026-04-30 08:23 | 47.12928 | -3.73257 | 19693 ft | 229 kts | 178° |
| 2026-04-30 08:23 | 47.11336 | -3.73252 | 19422 ft | 228 kts | 178° |
| 2026-04-30 08:24 | 47.09758 | -3.73243 | 19151 ft | 226 kts | 178° |
| 2026-04-30 08:24 | 47.08182 | -3.73231 | 18865 ft | 226 kts | 178° |
| 2026-04-30 08:24 | 47.06612 | -3.73214 | 18589 ft | 225 kts | 178° |
| 2026-04-30 08:24 | 47.05050 | -3.73194 | 18331 ft | 224 kts | 178° |
| 2026-04-30 08:25 | 47.03496 | -3.73169 | 18030 ft | 223 kts | 178° |
| 2026-04-30 08:25 | 47.01948 | -3.73141 | 17726 ft | 222 kts | 178° |
| 2026-04-30 08:25 | 47.00409 | -3.73109 | 17432 ft | 221 kts | 178° |
| 2026-04-30 08:25 | 46.98875 | -3.73073 | 17137 ft | 220 kts | 178° |
| 2026-04-30 08:26 | 46.97347 | -3.73034 | 16845 ft | 219 kts | 178° |
| 2026-04-30 08:26 | 46.95823 | -3.72990 | 16554 ft | 218 kts | 178° |
| 2026-04-30 08:26 | 46.94307 | -3.72942 | 16275 ft | 217 kts | 177° |
| 2026-04-30 08:26 | 46.92800 | -3.72891 | 16000 ft | 216 kts | 177° |
| 2026-04-30 08:27 | 46.91319 | -3.72837 | 15727 ft | 216 kts | 177° |
| 2026-04-30 08:27 | 46.90301 | -3.72797 | 15531 ft | 215 kts | 178° |
| 2026-04-30 08:27 | 46.88316 | -3.72714 | 15150 ft | 215 kts | 177° |
| 2026-04-30 08:27 | 46.86824 | -3.72647 | 14902 ft | 213 kts | 177° |
| 2026-04-30 08:28 | 46.85345 | -3.72577 | 14634 ft | 212 kts | 177° |
| 2026-04-30 08:28 | 46.84367 | -3.72528 | 14443 ft | 213 kts | 177° |
| 2026-04-30 08:28 | 46.82889 | -3.72451 | 14169 ft | 212 kts | 177° |
| 2026-04-30 08:28 | 46.81420 | -3.72370 | 13925 ft | 210 kts | 177° |
| 2026-04-30 08:29 | 46.79959 | -3.72285 | 13642 ft | 209 kts | 177° |
| 2026-04-30 08:29 | 46.78504 | -3.72197 | 13333 ft | 209 kts | 177° |
| 2026-04-30 08:29 | 46.77054 | -3.72105 | 13047 ft | 208 kts | 177° |
| 2026-04-30 08:29 | 46.75615 | -3.72009 | 12756 ft | 206 kts | 177° |
| 2026-04-30 08:30 | 46.74183 | -3.71910 | 12447 ft | 206 kts | 177° |
| 2026-04-30 08:30 | 46.72755 | -3.71807 | 12164 ft | 205 kts | 176° |
| 2026-04-30 08:30 | 46.71337 | -3.71701 | 11873 ft | 203 kts | 176° |
| 2026-04-30 08:30 | 46.69927 | -3.71591 | 11572 ft | 203 kts | 176° |
| 2026-04-30 08:31 | 46.68534 | -3.71478 | 11279 ft | 202 kts | 176° |
| 2026-04-30 08:31 | 46.67133 | -3.71361 | 10991 ft | 201 kts | 176° |
| 2026-04-30 08:31 | 46.65739 | -3.71240 | 10712 ft | 200 kts | 176° |
| 2026-04-30 08:31 | 46.64349 | -3.71116 | 10425 ft | 200 kts | 176° |
| 2026-04-30 08:32 | 46.62962 | -3.70987 | 10149 ft | 199 kts | 176° |
| 2026-04-30 08:32 | 46.61585 | -3.70856 | 9871 ft | 198 kts | 176° |
| 2026-04-30 08:32 | 46.60212 | -3.70720 | 9562 ft | 197 kts | 176° |
| 2026-04-30 08:32 | 46.58845 | -3.70581 | 9262 ft | 196 kts | 176° |
| 2026-04-30 08:33 | 46.57486 | -3.70439 | 8966 ft | 195 kts | 176° |
| 2026-04-30 08:33 | 46.56129 | -3.70293 | 8661 ft | 195 kts | 175° |
| 2026-04-30 08:33 | 46.54777 | -3.70143 | 8368 ft | 194 kts | 175° |
| 2026-04-30 08:33 | 46.53431 | -3.69990 | 8082 ft | 194 kts | 175° |
| 2026-04-30 08:34 | 46.52091 | -3.69833 | 7794 ft | 193 kts | 175° |
| 2026-04-30 08:34 | 46.50770 | -3.69674 | 7511 ft | 192 kts | 175° |
| 2026-04-30 08:34 | 46.49434 | -3.69510 | 7213 ft | 193 kts | 175° |
| 2026-04-30 08:34 | 46.48095 | -3.69341 | 6936 ft | 193 kts | 175° |
| 2026-04-30 08:35 | 46.46765 | -3.69169 | 6677 ft | 191 kts | 175° |
| 2026-04-30 08:35 | 46.45441 | -3.68994 | 6389 ft | 191 kts | 175° |
| 2026-04-30 08:35 | 46.44115 | -3.68814 | 6103 ft | 191 kts | 174° |
| 2026-04-30 08:35 | 46.42799 | -3.68632 | 5849 ft | 189 kts | 174° |
| 2026-04-30 08:36 | 46.41493 | -3.68447 | 5568 ft | 189 kts | 174° |
| 2026-04-30 08:36 | 46.40184 | -3.68258 | 5277 ft | 189 kts | 174° |
| 2026-04-30 08:36 | 46.38880 | -3.68065 | 5030 ft | 187 kts | 174° |
| 2026-04-30 08:36 | 46.37587 | -3.67870 | 4768 ft | 186 kts | 174° |
| 2026-04-30 08:37 | 46.36295 | -3.67671 | 4473 ft | 187 kts | 174° |
| 2026-04-30 08:37 | 46.35007 | -3.67469 | 4218 ft | 185 kts | 173° |
| 2026-04-30 08:37 | 46.33728 | -3.67264 | 3957 ft | 184 kts | 173° |
| 2026-04-30 08:37 | 46.32470 | -3.67059 | 3679 ft | 184 kts | 173° |
| 2026-04-30 08:38 | 46.31157 | -3.67108 | 3132 ft | 199 kts | 198° |
| 2026-04-30 08:38 | 46.30038 | -3.68271 | 2877 ft | 201 kts | 235° |
| 2026-04-30 08:38 | 46.29622 | -3.70216 | 3154 ft | 212 kts | 271° |
| 2026-04-30 08:38 | 46.30074 | -3.72118 | 4246 ft | 195 kts | 300° |
| 2026-04-30 08:39 | 46.30722 | -3.73978 | 4639 ft | 215 kts | 285° |
| 2026-04-30 08:39 | 46.30930 | -3.76347 | 4882 ft | 254 kts | 260° |
| 2026-04-30 08:39 | 46.30202 | -3.78724 | 5295 ft | 271 kts | 226° |
| 2026-04-30 08:39 | 46.28559 | -3.80190 | 5694 ft | 291 kts | 194° |
| 2026-04-30 08:40 | 46.26476 | -3.80280 | 6073 ft | 313 kts | 172° |
| 2026-04-30 08:40 | 46.24271 | -3.79824 | 6388 ft | 335 kts | 172° |
| 2026-04-30 08:40 | 46.21879 | -3.79321 | 6611 ft | 358 kts | 172° |
| 2026-04-30 08:40 | 46.19350 | -3.78787 | 6909 ft | 374 kts | 172° |
| 2026-04-30 08:41 | 46.16746 | -3.78473 | 7566 ft | 377 kts | 179° |
| 2026-04-30 08:41 | 46.14112 | -3.78569 | 8307 ft | 380 kts | 184° |
| 2026-04-30 08:41 | 46.11472 | -3.78905 | 9044 ft | 383 kts | 186° |
| 2026-04-30 08:41 | 46.08819 | -3.79351 | 9759 ft | 386 kts | 187° |
| 2026-04-30 08:42 | 46.06143 | -3.79813 | 10399 ft | 389 kts | 186° |
| 2026-04-30 08:42 | 46.03436 | -3.80244 | 11011 ft | 392 kts | 186° |
| 2026-04-30 08:42 | 46.00742 | -3.80619 | 11605 ft | 395 kts | 185° |
| 2026-04-30 08:42 | 45.97991 | -3.80958 | 12192 ft | 398 kts | 184° |
| 2026-04-30 08:43 | 45.95218 | -3.81275 | 12766 ft | 402 kts | 184° |
| 2026-04-30 08:43 | 45.92422 | -3.81591 | 13321 ft | 405 kts | 184° |
| 2026-04-30 08:43 | 45.89603 | -3.81910 | 13858 ft | 408 kts | 184° |
| 2026-04-30 08:43 | 45.86752 | -3.82235 | 14324 ft | 412 kts | 184° |
| 2026-04-30 08:44 | 45.83883 | -3.82565 | 14780 ft | 415 kts | 184° |
| 2026-04-30 08:44 | 45.80994 | -3.82902 | 15237 ft | 418 kts | 184° |
| 2026-04-30 08:44 | 45.78087 | -3.83245 | 15684 ft | 421 kts | 184° |
| 2026-04-30 08:44 | 45.75156 | -3.83596 | 16131 ft | 424 kts | 184° |
| 2026-04-30 08:45 | 45.72200 | -3.83952 | 16562 ft | 428 kts | 184° |
| 2026-04-30 08:45 | 45.69222 | -3.84309 | 16982 ft | 431 kts | 184° |
| 2026-04-30 08:45 | 45.66219 | -3.84665 | 17381 ft | 434 kts | 184° |
| 2026-04-30 08:45 | 45.63197 | -3.85022 | 17796 ft | 437 kts | 184° |
| 2026-04-30 08:46 | 45.60152 | -3.85380 | 18207 ft | 440 kts | 184° |
| 2026-04-30 08:46 | 45.57086 | -3.85741 | 18564 ft | 443 kts | 184° |
| 2026-04-30 08:46 | 45.54008 | -3.86099 | 18919 ft | 445 kts | 184° |
| 2026-04-30 08:46 | 45.50953 | -3.86457 | 19266 ft | 447 kts | 184° |
| 2026-04-30 08:47 | 45.47844 | -3.86825 | 19573 ft | 450 kts | 183° |
| 2026-04-30 08:47 | 45.44713 | -3.87197 | 19890 ft | 452 kts | 183° |
| 2026-04-30 08:47 | 45.41570 | -3.87567 | 20211 ft | 454 kts | 183° |
| 2026-04-30 08:47 | 45.38407 | -3.87933 | 20529 ft | 456 kts | 183° |
| 2026-04-30 08:48 | 45.35234 | -3.88297 | 20801 ft | 458 kts | 184° |
| 2026-04-30 08:48 | 45.32052 | -3.88665 | 21080 ft | 460 kts | 184° |
| 2026-04-30 08:48 | 45.28843 | -3.89034 | 21290 ft | 464 kts | 184° |
| 2026-04-30 08:48 | 45.25614 | -3.89409 | 21522 ft | 467 kts | 183° |
| 2026-04-30 08:49 | 45.22363 | -3.89788 | 21821 ft | 469 kts | 183° |
| 2026-04-30 08:49 | 45.19102 | -3.90166 | 22105 ft | 471 kts | 183° |
| 2026-04-30 08:49 | 45.15831 | -3.90547 | 22392 ft | 472 kts | 183° |
| 2026-04-30 08:49 | 45.12595 | -3.90920 | 22730 ft | 473 kts | 183° |
| 2026-04-30 08:50 | 45.09313 | -3.91302 | 23045 ft | 474 kts | 183° |
| 2026-04-30 08:50 | 45.06020 | -3.91685 | 23390 ft | 475 kts | 183° |
| 2026-04-30 08:50 | 45.02731 | -3.92060 | 23755 ft | 474 kts | 183° |
| 2026-04-30 08:50 | 44.99440 | -3.92434 | 24102 ft | 473 kts | 183° |
| 2026-04-30 08:51 | 44.96158 | -3.92809 | 24445 ft | 473 kts | 183° |
| 2026-04-30 08:51 | 44.92882 | -3.93188 | 24800 ft | 472 kts | 184° |
| 2026-04-30 08:51 | 44.89594 | -3.93568 | 25035 ft | 475 kts | 184° |
| 2026-04-30 08:51 | 44.86293 | -3.93946 | 25319 ft | 476 kts | 184° |
| 2026-04-30 08:52 | 44.82990 | -3.94322 | 25643 ft | 477 kts | 184° |
| 2026-04-30 08:52 | 44.79682 | -3.94697 | 25958 ft | 477 kts | 184° |
| 2026-04-30 08:52 | 44.76377 | -3.95072 | 26330 ft | 476 kts | 184° |
| 2026-04-30 08:52 | 44.73068 | -3.95453 | 26700 ft | 476 kts | 185° |
| 2026-04-30 08:53 | 44.69811 | -3.95834 | 27061 ft | 476 kts | 185° |
| 2026-04-30 08:53 | 44.66512 | -3.96218 | 27443 ft | 475 kts | 185° |
| 2026-04-30 08:53 | 44.63221 | -3.96599 | 27851 ft | 473 kts | 185° |
| 2026-04-30 08:53 | 44.59934 | -3.96969 | 28248 ft | 473 kts | 185° |
| 2026-04-30 08:54 | 44.56662 | -3.97333 | 28645 ft | 472 kts | 185° |
| 2026-04-30 08:54 | 44.53383 | -3.97698 | 29028 ft | 472 kts | 186° |
| 2026-04-30 08:54 | 44.50099 | -3.98068 | 29286 ft | 474 kts | 186° |
| 2026-04-30 08:54 | 44.46806 | -3.98443 | 29622 ft | 475 kts | 186° |
| 2026-04-30 08:55 | 44.43507 | -3.98822 | 29998 ft | 475 kts | 187° |
| 2026-04-30 08:55 | 44.40212 | -3.99198 | 30338 ft | 474 kts | 186° |
| 2026-04-30 08:55 | 44.36968 | -3.99563 | 30667 ft | 474 kts | 186° |
| 2026-04-30 08:55 | 44.33682 | -3.99934 | 30998 ft | 473 kts | 187° |
| 2026-04-30 08:56 | 44.30400 | -4.00307 | 31308 ft | 473 kts | 187° |
| 2026-04-30 08:56 | 44.27125 | -4.00675 | 31645 ft | 472 kts | 187° |
| 2026-04-30 08:56 | 44.23856 | -4.01038 | 31992 ft | 471 kts | 187° |
| 2026-04-30 08:56 | 44.20586 | -4.01401 | 32347 ft | 470 kts | 187° |
| 2026-04-30 08:57 | 44.17332 | -4.01762 | 32693 ft | 468 kts | 186° |
| 2026-04-30 08:57 | 44.14087 | -4.02121 | 33036 ft | 467 kts | 187° |
| 2026-04-30 08:57 | 44.10846 | -4.02483 | 33358 ft | 466 kts | 187° |
| 2026-04-30 08:57 | 44.07616 | -4.02847 | 33709 ft | 466 kts | 187° |
| 2026-04-30 08:58 | 44.04390 | -4.03209 | 34050 ft | 465 kts | 187° |
| 2026-04-30 08:58 | 44.01172 | -4.03566 | 34349 ft | 463 kts | 187° |
| 2026-04-30 08:58 | 43.97998 | -4.03916 | 34654 ft | 462 kts | 187° |
| 2026-04-30 08:58 | 43.94797 | -4.04273 | 34945 ft | 461 kts | 188° |
| 2026-04-30 08:59 | 43.91596 | -4.04630 | 35053 ft | 460 kts | 187° |
| 2026-04-30 08:59 | 43.85226 | -4.05332 | 35074 ft | 458 kts | 187° |
| 2026-04-30 09:00 | 43.78862 | -4.06038 | 35073 ft | 458 kts | 188° |
| 2026-04-30 09:00 | 43.72506 | -4.06739 | 35075 ft | 457 kts | 188° |
| 2026-04-30 09:01 | 43.66202 | -4.07428 | 35072 ft | 456 kts | 188° |
| 2026-04-30 09:01 | 43.59868 | -4.08124 | 35078 ft | 456 kts | 188° |
| 2026-04-30 09:02 | 43.50371 | -4.09169 | 35080 ft | 456 kts | 188° |
| 2026-04-30 09:02 | 43.44056 | -4.09861 | 35083 ft | 455 kts | 188° |
| 2026-04-30 09:03 | 43.37741 | -4.10557 | 35086 ft | 454 kts | 188° |
| 2026-04-30 09:03 | 43.31437 | -4.11238 | 35084 ft | 453 kts | 188° |
| 2026-04-30 09:04 | 43.25192 | -4.11907 | 35088 ft | 452 kts | 188° |
| 2026-04-30 09:04 | 43.18916 | -4.12589 | 35096 ft | 452 kts | 188° |
| 2026-04-30 09:05 | 43.12639 | -4.13273 | 35087 ft | 451 kts | 188° |
| 2026-04-30 09:05 | 43.06437 | -4.13938 | 35101 ft | 449 kts | 188° |
| 2026-04-30 09:06 | 43.00214 | -4.14601 | 35103 ft | 448 kts | 188° |
| 2026-04-30 09:06 | 42.93999 | -4.15267 | 35094 ft | 447 kts | 189° |
| 2026-04-30 09:07 | 42.87794 | -4.15938 | 35101 ft | 446 kts | 189° |
| 2026-04-30 09:07 | 42.81596 | -4.16612 | 35104 ft | 446 kts | 189° |
| 2026-04-30 09:08 | 42.75417 | -4.17267 | 35105 ft | 445 kts | 189° |
| 2026-04-30 09:08 | 42.69244 | -4.17914 | 35106 ft | 444 kts | 189° |
| 2026-04-30 09:09 | 42.63076 | -4.18573 | 35099 ft | 444 kts | 189° |
| 2026-04-30 09:09 | 42.56917 | -4.19233 | 35104 ft | 444 kts | 189° |
| 2026-04-30 09:10 | 42.50753 | -4.19883 | 35083 ft | 444 kts | 189° |
| 2026-04-30 09:10 | 42.44646 | -4.20525 | 35097 ft | 443 kts | 189° |
| 2026-04-30 09:11 | 42.38509 | -4.21172 | 35107 ft | 442 kts | 189° |
| 2026-04-30 09:11 | 42.32377 | -4.21816 | 35097 ft | 442 kts | 189° |
| 2026-04-30 09:12 | 42.26244 | -4.22460 | 35093 ft | 441 kts | 190° |
| 2026-04-30 09:12 | 42.20124 | -4.23105 | 35108 ft | 441 kts | 190° |
| 2026-04-30 09:13 | 42.13995 | -4.23750 | 35104 ft | 441 kts | 190° |
| 2026-04-30 09:13 | 42.07876 | -4.24397 | 35087 ft | 441 kts | 190° |
| 2026-04-30 09:14 | 42.01805 | -4.25027 | 35100 ft | 440 kts | 190° |
| 2026-04-30 09:14 | 41.95694 | -4.25658 | 35101 ft | 440 kts | 190° |
| 2026-04-30 09:15 | 41.89594 | -4.26286 | 35078 ft | 440 kts | 190° |
| 2026-04-30 09:15 | 41.83494 | -4.26910 | 35091 ft | 439 kts | 191° |
| 2026-04-30 09:16 | 41.77401 | -4.27544 | 35098 ft | 439 kts | 191° |
| 2026-04-30 09:16 | 41.71308 | -4.28180 | 35101 ft | 439 kts | 191° |
| 2026-04-30 09:17 | 41.65211 | -4.28817 | 35086 ft | 439 kts | 191° |
| 2026-04-30 09:17 | 41.59118 | -4.29440 | 35099 ft | 439 kts | 191° |
| 2026-04-30 09:18 | 41.53029 | -4.30067 | 35106 ft | 439 kts | 191° |
| 2026-04-30 09:18 | 41.46935 | -4.30689 | 35086 ft | 439 kts | 190° |
| 2026-04-30 09:19 | 41.40884 | -4.31307 | 35102 ft | 438 kts | 191° |
| 2026-04-30 09:19 | 41.34806 | -4.31934 | 35111 ft | 438 kts | 191° |
| 2026-04-30 09:20 | 41.28724 | -4.32554 | 35124 ft | 438 kts | 190° |
| 2026-04-30 09:20 | 41.23671 | -4.33062 | 35111 ft | 438 kts | 190° |
| 2026-04-30 09:21 | 41.17594 | -4.33674 | 35121 ft | 438 kts | 190° |
| 2026-04-30 09:21 | 41.11529 | -4.34296 | 35122 ft | 437 kts | 190° |
| 2026-04-30 09:22 | 41.05465 | -4.34910 | 35124 ft | 437 kts | 190° |
| 2026-04-30 09:22 | 40.99414 | -4.35513 | 35106 ft | 436 kts | 190° |
| 2026-04-30 09:23 | 40.93365 | -4.36120 | 35117 ft | 435 kts | 190° |
| 2026-04-30 09:23 | 40.87330 | -4.36737 | 35120 ft | 435 kts | 190° |
| 2026-04-30 09:24 | 40.81290 | -4.37344 | 35104 ft | 435 kts | 189° |
| 2026-04-30 09:24 | 40.75300 | -4.37939 | 35114 ft | 435 kts | 189° |
| 2026-04-30 09:25 | 40.69275 | -4.38548 | 35125 ft | 434 kts | 189° |
| 2026-04-30 09:25 | 40.63254 | -4.39155 | 35126 ft | 434 kts | 189° |
| 2026-04-30 09:26 | 40.57230 | -4.39751 | 35119 ft | 434 kts | 189° |
| 2026-04-30 09:26 | 40.51211 | -4.40356 | 35123 ft | 434 kts | 189° |
| 2026-04-30 09:27 | 40.45196 | -4.40954 | 35115 ft | 433 kts | 189° |
| 2026-04-30 09:27 | 40.39181 | -4.41552 | 35118 ft | 433 kts | 189° |
| 2026-04-30 09:28 | 40.33166 | -4.42146 | 35106 ft | 433 kts | 189° |
| 2026-04-30 09:28 | 40.27167 | -4.42731 | 35107 ft | 432 kts | 189° |
| 2026-04-30 09:29 | 40.21173 | -4.43322 | 35110 ft | 432 kts | 189° |
| 2026-04-30 09:29 | 40.15181 | -4.43917 | 35098 ft | 432 kts | 189° |
| 2026-04-30 09:30 | 40.09187 | -4.44510 | 35104 ft | 432 kts | 189° |
| 2026-04-30 09:30 | 40.03238 | -4.45099 | 35109 ft | 432 kts | 189° |
| 2026-04-30 09:31 | 39.97240 | -4.45682 | 35107 ft | 432 kts | 189° |
| 2026-04-30 09:31 | 39.91248 | -4.46267 | 35095 ft | 432 kts | 188° |
| 2026-04-30 09:32 | 39.85337 | -4.46837 | 35101 ft | 432 kts | 188° |
| 2026-04-30 09:32 | 39.79345 | -4.47417 | 35106 ft | 431 kts | 188° |
| 2026-04-30 09:33 | 39.73391 | -4.48001 | 35106 ft | 432 kts | 188° |
| 2026-04-30 09:33 | 39.67403 | -4.48582 | 35099 ft | 431 kts | 188° |
| 2026-04-30 09:34 | 39.61421 | -4.49165 | 35108 ft | 432 kts | 188° |
| 2026-04-30 09:34 | 39.55431 | -4.49748 | 35111 ft | 432 kts | 188° |
| 2026-04-30 09:35 | 39.49438 | -4.50332 | 35113 ft | 432 kts | 188° |
| 2026-04-30 09:35 | 39.43445 | -4.50902 | 35104 ft | 432 kts | 188° |
| 2026-04-30 09:36 | 39.37437 | -4.51474 | 35113 ft | 431 kts | 188° |
| 2026-04-30 09:36 | 39.31453 | -4.52048 | 35116 ft | 431 kts | 188° |
| 2026-04-30 09:37 | 39.25508 | -4.52622 | 35096 ft | 431 kts | 187° |
| 2026-04-30 09:37 | 39.19526 | -4.53196 | 35097 ft | 431 kts | 187° |
| 2026-04-30 09:38 | 39.13543 | -4.53773 | 35100 ft | 431 kts | 187° |
| 2026-04-30 09:38 | 39.07550 | -4.54342 | 35104 ft | 431 kts | 187° |
| 2026-04-30 09:39 | 39.01559 | -4.54901 | 35089 ft | 431 kts | 187° |
| 2026-04-30 09:39 | 38.95576 | -4.55466 | 35094 ft | 431 kts | 187° |
| 2026-04-30 09:40 | 38.89657 | -4.56509 | 35096 ft | 429 kts | 192° |
| 2026-04-30 09:40 | 38.83825 | -4.57737 | 34541 ft | 427 kts | 192° |
| 2026-04-30 09:41 | 38.80892 | -4.58352 | 33761 ft | 428 kts | 192° |
| 2026-04-30 09:41 | 38.77952 | -4.58967 | 33263 ft | 429 kts | 191° |
| 2026-04-30 09:41 | 38.74998 | -4.59583 | 32843 ft | 431 kts | 191° |
| 2026-04-30 09:41 | 38.72033 | -4.60197 | 32437 ft | 432 kts | 191° |
| 2026-04-30 09:42 | 38.69067 | -4.60811 | 32023 ft | 433 kts | 191° |
| 2026-04-30 09:42 | 38.66091 | -4.61427 | 31618 ft | 433 kts | 191° |
| 2026-04-30 09:42 | 38.63116 | -4.62045 | 31222 ft | 434 kts | 191° |
| 2026-04-30 09:42 | 38.60135 | -4.62666 | 30825 ft | 434 kts | 191° |
| 2026-04-30 09:43 | 38.57142 | -4.63287 | 30450 ft | 435 kts | 191° |
| 2026-04-30 09:43 | 38.54147 | -4.63906 | 30036 ft | 435 kts | 191° |
| 2026-04-30 09:43 | 38.51159 | -4.64524 | 29588 ft | 436 kts | 191° |
| 2026-04-30 09:43 | 38.48158 | -4.65146 | 29145 ft | 438 kts | 191° |
| 2026-04-30 09:44 | 38.45149 | -4.65768 | 28711 ft | 438 kts | 191° |
| 2026-04-30 09:44 | 38.42149 | -4.66385 | 28284 ft | 436 kts | 191° |
| 2026-04-30 09:44 | 38.39159 | -4.66996 | 27863 ft | 434 kts | 191° |
| 2026-04-30 09:44 | 38.36187 | -4.67603 | 27455 ft | 432 kts | 191° |
| 2026-04-30 09:45 | 38.33230 | -4.68209 | 27038 ft | 430 kts | 191° |
| 2026-04-30 09:45 | 38.30285 | -4.68815 | 26652 ft | 428 kts | 191° |
| 2026-04-30 09:45 | 38.27352 | -4.69421 | 26238 ft | 426 kts | 191° |
| 2026-04-30 09:45 | 38.24437 | -4.70023 | 25833 ft | 424 kts | 191° |
| 2026-04-30 09:46 | 38.21565 | -4.70610 | 25466 ft | 422 kts | 191° |
| 2026-04-30 09:46 | 38.18672 | -4.71199 | 25082 ft | 420 kts | 191° |
| 2026-04-30 09:46 | 38.15785 | -4.71788 | 24709 ft | 419 kts | 191° |
| 2026-04-30 09:46 | 38.12912 | -4.72374 | 24338 ft | 417 kts | 191° |
| 2026-04-30 09:47 | 38.10054 | -4.72958 | 23967 ft | 415 kts | 191° |
| 2026-04-30 09:47 | 38.07208 | -4.73539 | 23586 ft | 413 kts | 191° |
| 2026-04-30 09:47 | 38.04385 | -4.74113 | 23015 ft | 409 kts | 191° |
| 2026-04-30 09:47 | 38.01591 | -4.74680 | 22358 ft | 405 kts | 191° |
| 2026-04-30 09:48 | 37.98817 | -4.75242 | 21711 ft | 401 kts | 191° |
| 2026-04-30 09:48 | 37.96073 | -4.75799 | 21117 ft | 398 kts | 191° |
| 2026-04-30 09:48 | 37.93349 | -4.76352 | 20517 ft | 395 kts | 191° |
| 2026-04-30 09:48 | 37.90648 | -4.76901 | 19932 ft | 392 kts | 191° |
| 2026-04-30 09:49 | 37.87970 | -4.77448 | 19360 ft | 389 kts | 191° |
| 2026-04-30 09:49 | 37.85306 | -4.77990 | 18799 ft | 386 kts | 191° |
| 2026-04-30 09:49 | 37.82666 | -4.78527 | 18233 ft | 383 kts | 191° |
| 2026-04-30 09:49 | 37.80041 | -4.79056 | 17653 ft | 380 kts | 191° |
| 2026-04-30 09:50 | 37.77437 | -4.79581 | 17085 ft | 377 kts | 191° |
| 2026-04-30 09:50 | 37.74833 | -4.79864 | 16534 ft | 376 kts | 182° |
| 2026-04-30 09:50 | 37.72227 | -4.79877 | 15995 ft | 373 kts | 182° |
| 2026-04-30 09:50 | 37.69640 | -4.79893 | 15477 ft | 371 kts | 182° |
| 2026-04-30 09:51 | 37.67065 | -4.79914 | 14973 ft | 368 kts | 182° |
| 2026-04-30 09:51 | 37.64511 | -4.79935 | 14473 ft | 365 kts | 183° |
| 2026-04-30 09:51 | 37.62012 | -4.79954 | 13981 ft | 363 kts | 183° |
| 2026-04-30 09:51 | 37.59493 | -4.79971 | 13447 ft | 360 kts | 182° |
| 2026-04-30 09:52 | 37.56998 | -4.79988 | 12924 ft | 357 kts | 182° |
| 2026-04-30 09:52 | 37.54528 | -4.80004 | 12396 ft | 354 kts | 182° |
| 2026-04-30 09:52 | 37.52079 | -4.80020 | 11860 ft | 350 kts | 182° |
| 2026-04-30 09:52 | 37.49652 | -4.80034 | 11319 ft | 347 kts | 182° |
| 2026-04-30 09:53 | 37.47249 | -4.80048 | 10788 ft | 344 kts | 182° |
| 2026-04-30 09:53 | 37.44866 | -4.80063 | 10257 ft | 341 kts | 182° |
| 2026-04-30 09:53 | 37.42514 | -4.80080 | 9884 ft | 333 kts | 182° |
| 2026-04-30 09:53 | 37.40250 | -4.80098 | 9749 ft | 318 kts | 182° |
| 2026-04-30 09:54 | 37.38078 | -4.80114 | 9614 ft | 305 kts | 182° |
| 2026-04-30 09:54 | 37.35998 | -4.80127 | 9479 ft | 293 kts | 182° |
| 2026-04-30 09:54 | 37.34002 | -4.80139 | 9349 ft | 281 kts | 182° |
| 2026-04-30 09:54 | 37.32078 | -4.80152 | 9220 ft | 271 kts | 182° |
| 2026-04-30 09:55 | 37.30229 | -4.80167 | 9088 ft | 261 kts | 182° |
| 2026-04-30 09:55 | 37.28448 | -4.80182 | 8960 ft | 251 kts | 182° |
| 2026-04-30 09:55 | 37.26733 | -4.80194 | 8832 ft | 241 kts | 182° |
| 2026-04-30 09:55 | 37.25087 | -4.80207 | 8704 ft | 232 kts | 182° |
| 2026-04-30 09:56 | 37.23495 | -4.80218 | 8466 ft | 227 kts | 182° |
| 2026-04-30 09:56 | 37.21913 | -4.80229 | 8157 ft | 226 kts | 182° |
| 2026-04-30 09:56 | 37.20347 | -4.80240 | 8022 ft | 225 kts | 182° |
| 2026-04-30 09:56 | 37.18799 | -4.80246 | 8010 ft | 227 kts | 182° |
| 2026-04-30 09:57 | 37.17209 | -4.80232 | 7880 ft | 233 kts | 181° |
| 2026-04-30 09:57 | 37.15571 | -4.80212 | 7757 ft | 237 kts | 181° |
| 2026-04-30 09:57 | 37.13918 | -4.80190 | 7635 ft | 238 kts | 181° |
| 2026-04-30 09:57 | 37.12262 | -4.80167 | 7504 ft | 238 kts | 181° |
| 2026-04-30 09:58 | 37.10603 | -4.80146 | 7381 ft | 238 kts | 181° |
| 2026-04-30 09:58 | 37.08949 | -4.80128 | 7259 ft | 238 kts | 181° |
| 2026-04-30 09:58 | 37.07296 | -4.80110 | 7137 ft | 237 kts | 181° |
| 2026-04-30 09:58 | 37.05643 | -4.80094 | 7011 ft | 237 kts | 181° |
| 2026-04-30 09:59 | 37.02347 | -4.80058 | 7010 ft | 237 kts | 181° |
| 2026-04-30 09:59 | 36.99044 | -4.80022 | 6972 ft | 238 kts | 181° |
| 2026-04-30 10:00 | 36.95748 | -4.79984 | 6729 ft | 236 kts | 181° |
| 2026-04-30 10:00 | 36.94104 | -4.79964 | 6609 ft | 236 kts | 180° |
| 2026-04-30 10:01 | 36.90921 | -4.78962 | 6364 ft | 238 kts | 162° |
| 2026-04-30 10:01 | 36.89363 | -4.78281 | 6233 ft | 237 kts | 162° |
| 2026-04-30 10:01 | 36.87811 | -4.77592 | 6009 ft | 236 kts | 159° |
| 2026-04-30 10:02 | 36.85293 | -4.74951 | 5267 ft | 241 kts | 133° |
| 2026-04-30 10:02 | 36.84190 | -4.73384 | 4927 ft | 240 kts | 134° |
| 2026-04-30 10:02 | 36.83087 | -4.71826 | 4576 ft | 239 kts | 134° |
| 2026-04-30 10:02 | 36.81983 | -4.70270 | 4230 ft | 239 kts | 134° |
| 2026-04-30 10:03 | 36.80885 | -4.68724 | 3903 ft | 237 kts | 134° |
| 2026-04-30 10:03 | 36.79790 | -4.67182 | 3568 ft | 238 kts | 134° |
| 2026-04-30 10:03 | 36.78690 | -4.65633 | 3232 ft | 236 kts | 134° |
| 2026-04-30 10:03 | 36.77628 | -4.64138 | 2902 ft | 224 kts | 133° |
| 2026-04-30 10:04 | 36.76615 | -4.62715 | 2591 ft | 214 kts | 132° |
| 2026-04-30 10:04 | 36.75649 | -4.61357 | 2313 ft | 204 kts | 132° |
| 2026-04-30 10:04 | 36.74749 | -4.60081 | 2097 ft | 188 kts | 131° |
| 2026-04-30 10:04 | 36.73926 | -4.58900 | 1810 ft | 179 kts | 131° |
| 2026-04-30 10:05 | 36.73131 | -4.57793 | 1599 ft | 164 kts | 132° |
| 2026-04-30 10:05 | 36.72404 | -4.56772 | 1341 ft | 152 kts | 133° |
| 2026-04-30 10:05 | 36.71711 | -4.55802 | 1085 ft | 147 kts | 132° |
| 2026-04-30 10:05 | 36.71033 | -4.54861 | 909 ft | 145 kts | 133° |
| 2026-04-30 10:06 | 36.70366 | -4.53924 | 693 ft | 142 kts | 134° |
| 2026-04-30 10:06 | 36.69712 | -4.53012 | 518 ft | 140 kts | 133° |
| 2026-04-30 10:06 | 36.69079 | -4.52112 | 314 ft | 137 kts | 132° |
| 2026-04-30 10:06 | 36.68443 | -4.51243 | 141 ft | 133 kts | 132° |
| 2026-04-30 10:07 | 36.67808 | -4.50355 | 225 ft | 150 kts | 131° |
| 2026-04-30 10:07 | 36.67025 | -4.49250 | 626 ft | 190 kts | 132° |
| 2026-04-30 10:07 | 36.66021 | -4.47967 | 1130 ft | 222 kts | 147° |
| 2026-04-30 10:07 | 36.64473 | -4.47523 | 1518 ft | 242 kts | 191° |
| 2026-04-30 10:08 | 36.63084 | -4.48518 | 1915 ft | 228 kts | 233° |
| 2026-04-30 10:08 | 36.62648 | -4.50342 | 2321 ft | 225 kts | 277° |
| 2026-04-30 10:08 | 36.63347 | -4.52061 | 2934 ft | 231 kts | 316° |
| 2026-04-30 10:08 | 36.64675 | -4.53259 | 2910 ft | 242 kts | 324° |
| 2026-04-30 10:09 | 36.66091 | -4.54382 | 2569 ft | 241 kts | 327° |
| 2026-04-30 10:09 | 36.67498 | -4.55477 | 2309 ft | 235 kts | 324° |
| 2026-04-30 10:09 | 36.68970 | -4.56204 | 2323 ft | 230 kts | 353° |
| 2026-04-30 10:09 | 36.70567 | -4.56046 | 2255 ft | 234 kts | 11° |
| 2026-04-30 10:10 | 36.72159 | -4.55541 | 1922 ft | 234 kts | 13° |
| 2026-04-30 10:10 | 36.73708 | -4.55071 | 1760 ft | 225 kts | 6° |
| 2026-04-30 10:10 | 36.75194 | -4.55253 | 1757 ft | 208 kts | 335° |
| 2026-04-30 10:10 | 36.76368 | -4.56200 | 1688 ft | 197 kts | 319° |
| 2026-04-30 10:11 | 36.77123 | -4.57527 | 1645 ft | 183 kts | 282° |
| 2026-04-30 10:11 | 36.76901 | -4.58996 | 1664 ft | 177 kts | 230° |
| 2026-04-30 10:11 | 36.75847 | -4.59657 | 1607 ft | 174 kts | 185° |
| 2026-04-30 10:11 | 36.74665 | -4.59436 | 1496 ft | 174 kts | 154° |
| 2026-04-30 10:12 | 36.73684 | -4.58556 | 1400 ft | 175 kts | 139° |
| 2026-04-30 10:12 | 36.72851 | -4.57448 | 1293 ft | 175 kts | 131° |
| 2026-04-30 10:12 | 36.72038 | -4.56280 | 1147 ft | 179 kts | 132° |
| 2026-04-30 10:12 | 36.71491 | -4.55505 | 1014 ft | 180 kts | 133° |
| 2026-04-30 10:13 | 36.70663 | -4.54353 | 817 ft | 176 kts | 133° |
| 2026-04-30 10:13 | 36.69887 | -4.53262 | 574 ft | 161 kts | 133° |
| 2026-04-30 10:13 | 36.69168 | -4.52247 | 308 ft | 149 kts | 132° |
| 2026-04-30 10:13 | 36.68500 | -4.51322 | 110 ft | 140 kts | 131° |
| 2026-04-30 10:14 | 36.67899 | -4.50484 | 54 ft | 113 kts | 131° |
| 2026-04-30 10:14 | 36.67504 | -4.49930 | 51 ft | 60 kts | 131° |
| 2026-04-30 10:14 | 36.67292 | -4.49492 | 45 ft | 2 kts | 105° |
| 2026-04-30 10:15 | 36.67289 | -4.49462 | 44 ft | 5 kts | 88° |
| 2026-04-30 10:15 | 36.67310 | -4.49422 | 43 ft | 7 kts | 35° |
| 2026-04-30 10:15 | 36.67390 | -4.49474 | 43 ft | 17 kts | 315° |
| 2026-04-30 10:15 | 36.67493 | -4.49476 | 42 ft | 14 kts | 1° |
| 2026-04-30 10:16 | 36.67584 | -4.49469 | 42 ft | 12 kts | 14° |
| 2026-04-30 10:16 | 36.67638 | -4.49414 | 42 ft | 5 kts | 41° |
| 2026-04-30 10:16 | 36.67639 | -4.49414 | 42 ft | 0 kts | 41° |